createdAt,value
2019-03-17T00:00:30.172Z,10.43
2019-03-17T00:02:58.548Z,10.58
2019-03-17T00:05:26.909Z,10.36
2019-03-17T00:07:55.619Z,10.80
2019-03-17T00:10:25.005Z,10.77
2019-03-17T00:12:53.368Z,10.76
2019-03-17T00:15:22.715Z,11.15
2019-03-17T00:17:51.058Z,11.33
2019-03-17T00:20:19.436Z,11.23
2019-03-17T00:22:47.825Z,10.98
2019-03-17T00:25:16.187Z,11.12
2019-03-17T00:27:44.536Z,10.97
2019-03-17T00:32:47.101Z,11.16
2019-03-17T00:35:15.495Z,11.01
2019-03-17T00:37:44.812Z,11.03
2019-03-17T00:40:13.188Z,11.02
2019-03-17T00:42:41.506Z,10.94
2019-03-17T00:45:11.515Z,10.81
2019-03-17T00:47:39.190Z,10.76
2019-03-17T00:52:41.767Z,10.72
2019-03-17T00:55:10.135Z,10.55
2019-03-17T00:57:38.497Z,10.41
2019-03-17T01:00:09.420Z,10.47
2019-03-17T01:02:37.776Z,10.45
2019-03-17T01:07:45.262Z,10.29
2019-03-17T01:10:13.622Z,10.01
2019-03-17T01:12:44.766Z,9.65
2019-03-17T01:17:46.549Z,9.62
2019-03-17T01:20:14.924Z,9.58
2019-03-17T01:22:44.156Z,9.28
2019-03-17T01:27:52.469Z,9.31
2019-03-17T01:30:20.816Z,9.61
2019-03-17T01:32:49.148Z,9.59
2019-03-17T01:35:17.475Z,9.51
2019-03-17T01:37:45.804Z,9.54
2019-03-17T01:40:14.154Z,9.62
2019-03-17T01:42:42.497Z,9.50
2019-03-17T01:45:10.844Z,9.45
2019-03-17T01:47:39.209Z,9.42
2019-03-17T01:52:41.757Z,9.56
2019-03-17T01:55:10.100Z,9.54
2019-03-17T02:00:17.730Z,9.74
2019-03-17T02:02:47.032Z,9.55
2019-03-17T02:07:49.632Z,9.00
2019-03-17T02:10:17.981Z,8.87
2019-03-17T02:12:46.299Z,8.62
2019-03-17T02:15:14.657Z,8.58
2019-03-17T02:17:43.000Z,8.99
2019-03-17T02:20:11.345Z,9.35
2019-03-17T02:22:39.679Z,9.51
2019-03-17T02:25:08.042Z,9.66
2019-03-17T02:27:38.367Z,9.40
2019-03-17T02:30:07.620Z,9.08
2019-03-17T02:37:47.716Z,8.51
2019-03-17T02:40:16.972Z,8.53
2019-03-17T02:42:45.358Z,8.27
2019-03-17T02:45:13.738Z,8.15
2019-03-17T02:47:42.045Z,8.24
2019-03-17T02:50:10.388Z,8.19
2019-03-17T02:52:38.718Z,7.94
2019-03-17T02:55:07.070Z,7.88
2019-03-17T02:57:35.402Z,8.22
2019-03-17T03:00:03.912Z,8.91
2019-03-17T03:02:32.249Z,9.00
2019-03-17T03:05:00.666Z,8.68
2019-03-17T03:07:29.917Z,7.97
2019-03-17T03:09:58.256Z,7.25
2019-03-17T03:12:26.601Z,6.79
2019-03-17T03:14:54.980Z,6.47
2019-03-17T03:19:57.571Z,6.23
2019-03-17T03:22:26.937Z,6.12
2019-03-17T03:24:55.314Z,6.00
2019-03-17T03:27:23.646Z,6.03
2019-03-17T03:29:52.005Z,5.90
2019-03-17T03:32:22.340Z,5.79
2019-03-17T03:34:50.679Z,5.78
2019-03-17T03:37:19.018Z,6.09
2019-03-17T03:39:47.359Z,6.11
2019-03-17T03:42:15.708Z,5.99
2019-03-17T03:44:44.040Z,6.07
2019-03-17T03:47:16.749Z,5.94
2019-03-17T03:49:45.084Z,6.02
2019-03-17T03:52:13.437Z,5.89
2019-03-17T03:54:41.774Z,5.79
2019-03-17T03:57:12.122Z,5.74
2019-03-17T03:59:40.483Z,5.75
2019-03-17T04:02:08.814Z,5.51
2019-03-17T04:04:37.163Z,5.46
2019-03-17T04:07:06.472Z,5.38
2019-03-17T04:09:35.769Z,5.21
2019-03-17T04:12:04.169Z,5.20
2019-03-17T04:14:33.435Z,5.25
2019-03-17T04:17:01.792Z,5.06
2019-03-17T04:19:30.134Z,5.15
2019-03-17T04:21:59.439Z,5.11
2019-03-17T04:24:27.773Z,4.83
2019-03-17T04:26:56.195Z,4.91
2019-03-17T04:29:24.465Z,4.82
2019-03-17T04:31:52.857Z,4.77
2019-03-17T04:34:21.192Z,4.77
2019-03-17T04:36:50.447Z,4.70
2019-03-17T04:39:18.780Z,4.82
2019-03-17T04:41:47.131Z,4.81
2019-03-17T04:44:20.750Z,4.80
2019-03-17T04:46:43.803Z,4.67
2019-03-17T04:51:46.389Z,3.85
2019-03-17T04:54:14.743Z,4.19
2019-03-17T04:56:44.061Z,4.43
2019-03-17T04:59:13.420Z,4.71
2019-03-17T05:01:41.774Z,4.85
2019-03-17T05:04:11.376Z,5.09
2019-03-17T05:06:51.563Z,5.05
2019-03-17T05:11:49.243Z,4.77
2019-03-17T05:14:22.980Z,4.80
2019-03-17T05:16:57.664Z,4.90
2019-03-17T05:19:26.018Z,4.85
2019-03-17T05:22:19.968Z,4.73
2019-03-17T05:27:25.767Z,4.51
2019-03-17T05:30:21.978Z,4.47
2019-03-17T05:33:20.746Z,4.68
2019-03-17T05:35:53.117Z,4.72
2019-03-17T05:38:22.387Z,4.59
2019-03-17T05:40:57.534Z,4.69
2019-03-17T05:43:27.781Z,4.79
2019-03-17T05:45:59.332Z,4.82
2019-03-17T05:48:28.589Z,4.81
2019-03-17T05:50:57.906Z,4.81
2019-03-17T05:53:27.168Z,4.85
2019-03-17T05:58:29.750Z,4.90
2019-03-17T06:00:58.098Z,4.91
2019-03-17T06:03:26.445Z,4.89
2019-03-17T06:05:54.796Z,4.88
2019-03-17T06:08:23.182Z,5.10
2019-03-17T06:10:51.520Z,5.33
2019-03-17T06:13:19.874Z,5.35
2019-03-17T06:15:48.204Z,5.45
2019-03-17T06:18:16.539Z,5.65
2019-03-17T06:20:45.819Z,5.89
2019-03-17T06:23:14.199Z,5.97
2019-03-17T06:25:42.540Z,5.97
2019-03-17T06:28:11.788Z,6.01
2019-03-17T06:30:43.475Z,6.20
2019-03-17T06:35:49.114Z,6.86
2019-03-17T06:38:29.449Z,7.16
2019-03-17T06:40:57.797Z,7.41
2019-03-17T06:43:43.163Z,7.59
2019-03-17T06:46:13.468Z,7.75
2019-03-17T06:48:47.938Z,7.80
2019-03-17T06:51:29.676Z,7.50
2019-03-17T06:53:58.066Z,7.43
2019-03-17T06:56:32.061Z,7.63
2019-03-17T06:59:00.430Z,8.05
2019-03-17T07:01:29.670Z,8.42
2019-03-17T07:03:58.016Z,8.79
2019-03-17T07:06:26.606Z,9.34
2019-03-17T07:08:55.896Z,9.76
2019-03-17T07:11:28.310Z,9.92
2019-03-17T07:13:57.414Z,10.11
2019-03-17T07:16:26.670Z,10.27
2019-03-17T07:18:55.814Z,10.64
2019-03-17T07:21:25.123Z,10.89
2019-03-17T07:23:53.494Z,11.11
2019-03-17T07:26:30.450Z,11.40
2019-03-17T07:28:58.800Z,11.56
2019-03-17T07:31:27.160Z,11.82
2019-03-17T07:34:14.046Z,12.00
2019-03-17T07:36:47.416Z,12.18
2019-03-17T07:39:15.804Z,12.39
2019-03-17T07:41:44.287Z,12.65
2019-03-17T07:46:51.921Z,12.98
2019-03-17T07:49:21.206Z,13.11
2019-03-17T07:54:35.091Z,13.51
2019-03-17T07:57:02.191Z,13.56
2019-03-17T08:02:06.862Z,13.93
2019-03-17T08:07:19.503Z,14.24
2019-03-17T08:09:52.104Z,14.43
2019-03-17T08:12:25.882Z,14.65
2019-03-17T08:14:57.645Z,14.77
2019-03-17T08:19:59.737Z,15.14
2019-03-17T08:22:32.650Z,15.30
2019-03-17T08:25:01.008Z,15.56
2019-03-17T08:27:34.212Z,15.62
2019-03-17T08:30:02.573Z,15.56
2019-03-17T08:35:07.319Z,15.96
2019-03-17T08:37:46.959Z,15.99
2019-03-17T08:40:16.304Z,16.02
2019-03-17T08:42:48.188Z,16.12
2019-03-17T08:45:17.447Z,16.26
2019-03-17T08:47:57.419Z,16.21
2019-03-17T08:50:17.949Z,16.31
2019-03-17T08:52:48.199Z,16.61
2019-03-17T08:55:30.253Z,16.57
2019-03-17T08:57:59.499Z,16.60
2019-03-17T09:00:29.952Z,16.85
2019-03-17T09:02:58.306Z,16.90
2019-03-17T09:05:40.607Z,17.02
2019-03-17T09:08:14.883Z,17.69
2019-03-17T09:13:19.492Z,18.77
2019-03-17T09:15:49.757Z,19.02
2019-03-17T09:18:34.645Z,18.91
2019-03-17T09:21:03.028Z,18.70
2019-03-17T09:23:37.027Z,19.35
2019-03-17T09:26:05.406Z,19.59
2019-03-17T09:28:34.699Z,19.68
2019-03-17T09:31:07.670Z,19.13
2019-03-17T09:36:10.410Z,19.15
2019-03-17T09:38:57.194Z,19.58
2019-03-17T09:41:25.533Z,19.67
2019-03-17T09:43:53.897Z,19.88
2019-03-17T09:46:22.255Z,20.27
2019-03-17T09:48:52.501Z,20.01
2019-03-17T09:51:20.852Z,19.98
2019-03-17T09:53:57.598Z,20.59
2019-03-17T09:56:25.957Z,20.71
2019-03-17T09:58:54.307Z,19.69
2019-03-17T10:01:22.676Z,19.53
2019-03-17T10:04:07.478Z,19.05
2019-03-17T10:06:41.617Z,18.78
2019-03-17T10:09:09.970Z,19.04
2019-03-17T10:11:39.229Z,19.73
2019-03-17T10:14:09.498Z,20.12
2019-03-17T10:19:14.195Z,20.39
2019-03-17T10:24:16.935Z,20.02
2019-03-17T10:26:46.268Z,20.67
2019-03-17T10:29:14.635Z,21.12
2019-03-17T10:31:42.999Z,20.43
2019-03-17T10:34:11.367Z,20.88
2019-03-17T10:36:39.723Z,21.05
2019-03-17T10:39:12.711Z,20.79
2019-03-17T10:41:36.421Z,20.91
2019-03-17T10:44:04.785Z,21.20
2019-03-17T10:46:33.219Z,21.55
2019-03-17T10:49:01.574Z,20.90
2019-03-17T10:51:29.948Z,20.89
2019-03-17T10:53:58.297Z,20.69
2019-03-17T10:56:26.644Z,20.80
2019-03-17T10:58:54.997Z,21.14
2019-03-17T11:01:24.284Z,20.44
2019-03-17T11:03:52.734Z,20.98
2019-03-17T11:06:21.100Z,21.21
2019-03-17T11:08:49.458Z,21.15
2019-03-17T11:13:56.241Z,22.08
2019-03-17T11:16:28.054Z,21.57
2019-03-17T11:18:56.637Z,22.10
2019-03-17T11:21:25.014Z,22.31
2019-03-17T11:23:56.486Z,21.76
2019-03-17T11:26:26.761Z,21.66
2019-03-17T11:28:56.016Z,21.74
2019-03-17T11:31:25.309Z,22.29
2019-03-17T11:33:56.776Z,21.97
2019-03-17T11:36:29.738Z,21.78
2019-03-17T11:38:58.994Z,22.60
2019-03-17T11:41:29.284Z,22.41
2019-03-17T11:43:58.375Z,22.15
2019-03-17T11:46:33.900Z,21.75
2019-03-17T11:49:06.898Z,22.42
2019-03-17T11:51:36.513Z,22.29
2019-03-17T11:56:42.133Z,22.89
2019-03-17T11:59:32.324Z,22.73
2019-03-17T12:02:00.696Z,23.04
2019-03-17T12:04:32.641Z,24.26
2019-03-17T12:07:09.125Z,24.59
2019-03-17T12:09:49.302Z,23.36
2019-03-17T12:12:18.558Z,22.98
2019-03-17T12:14:46.931Z,23.31
2019-03-17T12:17:19.881Z,23.98
2019-03-17T12:19:48.257Z,23.26
2019-03-17T12:22:26.819Z,24.29
2019-03-17T12:24:55.185Z,25.75
2019-03-17T12:27:25.462Z,25.16
2019-03-17T12:29:59.236Z,24.67
2019-03-17T12:32:27.604Z,24.71
2019-03-17T12:34:57.902Z,24.79
2019-03-17T12:40:05.479Z,24.16
2019-03-17T12:42:33.848Z,24.15
2019-03-17T12:45:03.120Z,25.04
2019-03-17T12:47:32.398Z,24.13
2019-03-17T12:50:00.744Z,23.84
2019-03-17T12:52:33.580Z,23.46
2019-03-17T12:55:01.955Z,23.76
2019-03-17T13:00:26.764Z,23.89
2019-03-17T13:02:55.160Z,24.57
2019-03-17T13:05:23.510Z,24.09
2019-03-17T13:07:51.943Z,24.89
2019-03-17T13:10:22.058Z,25.26
2019-03-17T13:12:50.502Z,26.66
2019-03-17T13:15:18.871Z,25.61
2019-03-17T13:17:47.214Z,25.24
2019-03-17T13:20:19.554Z,24.82
2019-03-17T13:22:47.917Z,23.71
2019-03-17T13:25:17.156Z,23.75
2019-03-17T13:28:52.185Z,24.44
2019-03-17T13:31:20.728Z,24.31
2019-03-17T13:33:49.034Z,23.64
2019-03-17T13:36:17.372Z,23.30
2019-03-17T13:38:45.765Z,22.75
2019-03-17T13:43:50.431Z,22.40
2019-03-17T13:46:18.799Z,21.25
2019-03-17T13:48:47.158Z,21.06
2019-03-17T13:53:51.886Z,21.05
2019-03-17T13:58:56.509Z,21.09
2019-03-17T14:01:24.870Z,20.26
2019-03-17T14:03:54.987Z,21.10
2019-03-17T14:06:21.617Z,21.12
2019-03-17T14:08:49.965Z,20.27
2019-03-17T14:11:18.324Z,20.42
2019-03-17T14:13:46.693Z,19.89
2019-03-17T14:16:15.857Z,19.87
2019-03-17T14:18:43.441Z,20.45
2019-03-17T14:21:11.794Z,20.98
2019-03-17T14:23:40.146Z,20.46
2019-03-17T14:26:08.547Z,20.28
2019-03-17T14:28:37.828Z,19.94
2019-03-17T14:31:06.189Z,20.84
2019-03-17T14:33:34.556Z,21.02
2019-03-17T14:36:02.895Z,20.65
2019-03-17T14:38:31.306Z,20.60
2019-03-17T14:40:59.584Z,20.84
2019-03-17T14:43:27.945Z,20.21
2019-03-17T14:45:57.221Z,20.02
2019-03-17T14:48:25.586Z,20.04
2019-03-17T14:50:53.940Z,20.22
2019-03-17T14:53:22.276Z,20.45
2019-03-17T14:55:50.616Z,19.43
2019-03-17T14:58:19.010Z,19.17
2019-03-17T15:00:47.384Z,18.89
2019-03-17T15:03:15.736Z,18.53
2019-03-17T15:05:44.089Z,18.61
2019-03-17T15:08:12.466Z,18.73
2019-03-17T15:10:40.840Z,18.85
2019-03-17T15:15:46.515Z,17.98
2019-03-17T15:19:21.304Z,17.67
2019-03-17T15:21:49.641Z,17.44
2019-03-17T15:24:17.997Z,16.98
2019-03-17T15:26:46.377Z,16.64
2019-03-17T15:29:15.833Z,16.20
2019-03-17T15:31:44.160Z,16.12
2019-03-17T15:34:13.569Z,15.99
2019-03-17T15:36:41.906Z,16.01
2019-03-17T15:39:10.280Z,15.87
2019-03-17T15:41:38.619Z,15.78
2019-03-17T15:44:06.980Z,15.68
2019-03-17T15:49:09.674Z,15.57
2019-03-17T15:51:38.105Z,15.42
2019-03-17T15:54:07.408Z,15.42
2019-03-17T15:56:35.809Z,15.27
2019-03-17T15:59:04.165Z,15.34
2019-03-17T16:01:33.577Z,15.26
2019-03-17T16:04:02.868Z,15.36
2019-03-17T16:06:32.156Z,15.13
2019-03-17T16:11:36.746Z,15.04
2019-03-17T16:14:05.103Z,14.96
2019-03-17T16:19:07.664Z,14.91
2019-03-17T16:21:36.020Z,14.83
2019-03-17T16:24:04.384Z,14.78
2019-03-17T16:26:32.726Z,14.74
2019-03-17T16:29:02.081Z,14.72
2019-03-17T16:31:30.412Z,14.62
2019-03-17T16:33:58.751Z,14.46
2019-03-17T16:36:27.095Z,14.42
2019-03-17T16:38:55.462Z,13.81
2019-03-17T16:41:23.795Z,13.33
2019-03-17T16:43:52.185Z,12.78
2019-03-17T16:46:20.532Z,12.32
2019-03-17T16:48:48.917Z,12.06
2019-03-17T16:51:17.301Z,11.81
2019-03-17T16:53:45.669Z,11.71
2019-03-17T16:56:14.026Z,11.20
2019-03-17T17:01:16.856Z,10.64
2019-03-17T17:03:45.259Z,10.34
2019-03-17T17:08:47.884Z,9.95
2019-03-17T17:11:16.349Z,9.46
2019-03-17T17:13:44.694Z,9.03
2019-03-17T17:16:13.069Z,8.87
2019-03-17T17:18:41.498Z,8.22
2019-03-17T17:21:09.976Z,7.94
2019-03-17T17:23:38.304Z,7.80
2019-03-17T17:26:06.750Z,7.52
2019-03-17T17:28:35.059Z,7.43
2019-03-17T17:31:04.435Z,7.12
2019-03-17T17:33:32.765Z,7.00
2019-03-17T17:36:01.410Z,6.67
2019-03-17T17:38:29.774Z,6.48
2019-03-17T17:40:58.126Z,6.24
2019-03-17T17:43:26.456Z,6.09
2019-03-17T17:45:54.800Z,5.91
2019-03-17T17:48:23.147Z,5.79
2019-03-17T17:50:51.484Z,5.58
2019-03-17T17:53:19.846Z,5.62
2019-03-17T17:55:48.260Z,5.45
2019-03-17T17:58:16.613Z,5.34
2019-03-17T18:00:45.232Z,5.36
2019-03-17T18:03:13.575Z,5.32
2019-03-17T18:05:42.002Z,5.21
2019-03-17T18:08:10.391Z,5.19
2019-03-17T18:10:38.720Z,5.06
2019-03-17T18:13:07.165Z,5.01
2019-03-17T18:15:35.518Z,4.94
2019-03-17T18:18:03.922Z,4.85
2019-03-17T18:20:32.299Z,4.75
2019-03-17T18:23:00.627Z,4.62
2019-03-17T18:25:28.975Z,4.65
2019-03-17T18:27:57.326Z,4.65
2019-03-17T18:30:25.660Z,4.51
2019-03-17T18:32:54.015Z,4.37
2019-03-17T18:35:22.415Z,4.36
2019-03-17T18:37:51.293Z,4.33
2019-03-17T18:40:19.116Z,4.29
2019-03-17T18:42:47.455Z,4.12
2019-03-17T18:45:24.169Z,4.07
2019-03-17T18:47:52.514Z,4.06
2019-03-17T18:50:22.858Z,4.14
2019-03-17T18:52:51.226Z,4.01
2019-03-17T18:55:19.597Z,4.03
2019-03-17T18:57:48.007Z,4.01
2019-03-17T19:00:18.674Z,3.94
2019-03-17T19:02:47.006Z,3.84
2019-03-17T19:05:19.322Z,3.86
2019-03-17T19:07:44.582Z,3.84
2019-03-17T19:10:14.379Z,3.87
2019-03-17T19:12:45.890Z,3.85
2019-03-17T19:15:11.967Z,3.86
2019-03-17T19:17:40.317Z,3.86
2019-03-17T19:20:13.100Z,3.89
2019-03-17T19:22:41.535Z,3.88
2019-03-17T19:25:11.656Z,3.86
2019-03-17T19:27:40.044Z,3.87
2019-03-17T19:30:11.727Z,3.86
2019-03-17T19:32:40.113Z,3.88
2019-03-17T19:35:08.467Z,3.91
2019-03-17T19:37:36.801Z,3.97
2019-03-17T19:40:06.079Z,3.99
2019-03-17T19:42:34.560Z,3.94
2019-03-17T19:45:02.953Z,3.98
2019-03-17T19:47:31.295Z,3.93
2019-03-17T19:49:59.677Z,3.89
2019-03-17T19:52:28.004Z,3.95
2019-03-17T19:54:56.455Z,3.91
2019-03-17T19:57:24.789Z,3.90
2019-03-17T19:59:53.329Z,3.84
2019-03-17T20:02:21.655Z,3.85
2019-03-17T20:04:50.096Z,3.85
2019-03-17T20:07:18.437Z,3.81
2019-03-17T20:09:46.877Z,3.84
2019-03-17T20:12:15.215Z,3.86
2019-03-17T20:14:43.629Z,3.88
2019-03-17T20:17:11.987Z,3.89
2019-03-17T20:22:14.825Z,3.87
2019-03-17T20:24:43.153Z,3.86
2019-03-17T20:27:11.583Z,3.87
2019-03-17T20:29:39.918Z,3.85
2019-03-17T20:32:08.349Z,3.85
2019-03-17T20:34:36.680Z,3.83
2019-03-17T20:37:05.759Z,3.81
2019-03-17T20:39:34.975Z,3.84
2019-03-17T20:42:03.312Z,3.78
2019-03-17T20:44:31.669Z,3.76
2019-03-17T20:49:37.248Z,3.71
2019-03-17T20:52:05.601Z,3.69
2019-03-17T20:54:34.849Z,3.71
2019-03-17T20:57:03.240Z,3.66
2019-03-17T20:59:31.541Z,3.63
2019-03-17T21:01:59.889Z,3.62
2019-03-17T21:04:28.225Z,3.58
2019-03-17T21:09:30.779Z,3.48
2019-03-17T21:12:00.098Z,3.41
2019-03-17T21:14:28.432Z,3.47
2019-03-17T21:16:57.214Z,3.36
2019-03-17T21:19:25.601Z,3.31
2019-03-17T21:21:53.900Z,3.28
2019-03-17T21:24:22.235Z,3.31
2019-03-17T21:26:50.569Z,3.29
2019-03-17T21:29:18.916Z,3.36
2019-03-17T21:34:21.677Z,3.31
2019-03-17T21:36:52.417Z,3.31
2019-03-17T21:39:20.725Z,3.34
2019-03-17T21:41:49.205Z,3.30
2019-03-17T21:44:17.555Z,3.27
2019-03-17T21:46:45.901Z,3.29
2019-03-17T21:49:14.229Z,3.32
2019-03-17T21:51:43.612Z,3.39
2019-03-17T21:54:12.026Z,3.46
2019-03-17T21:56:40.423Z,3.45
2019-03-17T21:59:08.748Z,3.46
2019-03-17T22:01:38.197Z,3.44
2019-03-17T22:04:06.576Z,3.42
2019-03-17T22:06:34.974Z,3.41
2019-03-17T22:09:03.424Z,3.37
2019-03-17T22:11:31.732Z,3.43
2019-03-17T22:14:11.477Z,3.34
2019-03-17T22:16:29.789Z,3.29
2019-03-17T22:18:57.878Z,3.26
2019-03-17T22:21:26.193Z,3.23
2019-03-17T22:23:55.611Z,3.24
2019-03-17T22:26:23.930Z,3.24
2019-03-17T22:28:52.403Z,3.17
2019-03-17T22:31:20.744Z,3.15
2019-03-17T22:33:49.138Z,3.23
2019-03-17T22:36:17.480Z,3.21
2019-03-17T22:38:45.916Z,3.25
2019-03-17T22:41:14.217Z,3.20
2019-03-17T22:43:42.665Z,3.21
2019-03-17T22:46:11.077Z,3.23
2019-03-17T22:48:39.534Z,3.24
2019-03-17T22:51:08.984Z,3.27
2019-03-17T22:53:37.320Z,3.30
2019-03-17T22:56:05.685Z,3.23
2019-03-17T22:58:34.026Z,2.91
2019-03-17T23:01:02.542Z,2.77
2019-03-17T23:03:30.956Z,2.64
2019-03-17T23:05:59.382Z,2.63
2019-03-17T23:08:28.653Z,2.67
2019-03-17T23:10:57.027Z,2.67
2019-03-17T23:13:25.376Z,2.66
2019-03-17T23:15:53.724Z,2.67
2019-03-17T23:18:22.789Z,2.70
2019-03-17T23:20:51.128Z,2.61
2019-03-17T23:23:19.478Z,2.70
2019-03-17T23:25:47.986Z,2.68
2019-03-17T23:28:16.321Z,2.67
2019-03-17T23:30:44.722Z,2.62
2019-03-17T23:33:13.073Z,2.59
2019-03-17T23:35:41.423Z,2.57
2019-03-17T23:38:09.776Z,2.55
2019-03-17T23:40:38.143Z,2.57
2019-03-17T23:43:06.480Z,2.55
2019-03-17T23:45:34.810Z,2.53
2019-03-17T23:48:03.189Z,2.58
2019-03-17T23:50:31.537Z,2.53
2019-03-17T23:52:59.872Z,2.50
2019-03-17T23:55:28.247Z,2.48
2019-03-17T23:57:56.597Z,2.46
